createdAt,value
2022-11-21T00:01:29.408Z,99.90
2022-11-21T00:08:54.652Z,99.90
2022-11-21T00:13:53.397Z,99.90
2022-11-21T00:16:22.640Z,99.90
2022-11-21T00:18:52.093Z,99.90
2022-11-21T00:21:22.936Z,99.90
2022-11-21T00:23:54.910Z,99.90
2022-11-21T00:31:22.251Z,99.90
2022-11-21T01:01:09.428Z,99.90
2022-11-21T01:06:07.351Z,99.90
2022-11-21T01:08:38.567Z,99.90
2022-11-21T01:11:08.599Z,99.90
2022-11-21T01:13:40.265Z,99.90
2022-11-21T01:16:14.303Z,99.90
2022-11-21T01:21:17.868Z,99.90
2022-11-21T01:23:47.968Z,99.90
2022-11-21T01:26:19.953Z,99.90
2022-11-21T01:31:22.817Z,99.90
2022-11-21T01:36:26.113Z,99.90
2022-11-21T01:38:58.846Z,99.90
2022-11-21T01:41:34.632Z,99.90
2022-11-21T01:44:04.412Z,99.90
2022-11-21T01:49:08.138Z,99.90
2022-11-21T01:51:50.524Z,99.90
2022-11-21T01:54:29.235Z,99.90
2022-11-21T01:57:05.896Z,99.90
2022-11-21T01:59:47.430Z,99.90
2022-11-21T02:02:22.278Z,99.90
2022-11-21T02:04:55.435Z,99.90
2022-11-21T02:07:26.147Z,99.90
2022-11-21T02:09:59.788Z,99.90
2022-11-21T02:12:36.421Z,99.90
2022-11-21T02:15:32.512Z,99.90
2022-11-21T02:20:31.935Z,99.90
2022-11-21T02:23:20.181Z,99.90
2022-11-21T02:25:53.024Z,99.90
2022-11-21T02:28:21.522Z,99.90
2022-11-21T02:38:25.288Z,99.90
2022-11-21T02:41:18.347Z,99.90
2022-11-21T02:43:51.387Z,99.90
2022-11-21T02:48:47.124Z,99.90
2022-11-21T03:20:50.729Z,99.90
2022-11-21T03:43:06.086Z,99.90
2022-11-21T03:48:01.963Z,99.90
2022-11-21T04:10:11.756Z,99.90
2022-11-21T05:02:04.385Z,99.90
2022-11-21T05:36:58.658Z,99.90
2022-11-21T05:39:27.056Z,99.90
2022-11-21T05:54:23.278Z,99.90
2022-11-21T06:29:11.783Z,99.90
2022-11-21T06:36:35.727Z,99.90
2022-11-21T06:41:31.078Z,99.90
2022-11-21T06:44:01.581Z,99.90
2022-11-21T06:51:26.132Z,99.90
2022-11-21T06:53:56.159Z,99.90
2022-11-21T06:56:26.006Z,99.90
2022-11-21T07:11:25.032Z,99.90
2022-11-21T07:13:56.660Z,99.90
2022-11-21T07:36:12.502Z,99.90
2022-11-21T07:41:10.089Z,99.90
2022-11-21T07:43:37.825Z,99.90
2022-11-21T07:51:04.973Z,99.90
2022-11-21T07:56:01.123Z,99.90
2022-11-21T08:13:21.887Z,99.90
2022-11-21T08:35:38.576Z,99.90
2022-11-21T08:38:06.777Z,99.90
2022-11-21T08:40:35.265Z,99.90
2022-11-21T08:43:05.241Z,99.90
2022-11-21T08:45:34.166Z,99.90
2022-11-21T08:53:02.079Z,99.90
2022-11-21T08:55:30.504Z,99.90
2022-11-21T09:07:56.670Z,99.90
2022-11-21T09:10:24.906Z,99.90
2022-11-21T09:18:04.021Z,99.90
2022-11-21T09:20:34.705Z,99.90
2022-11-21T09:23:07.039Z,99.90
2022-11-21T09:28:04.352Z,99.90
2022-11-21T09:33:02.579Z,99.90
2022-11-21T09:40:27.768Z,99.90
2022-11-21T09:43:16.740Z,99.90
2022-11-21T09:45:49.827Z,96.80
2022-11-21T09:48:26.415Z,98.60
2022-11-21T09:51:00.952Z,98.70
2022-11-21T09:53:35.382Z,99.90
2022-11-21T09:56:14.911Z,99.10
2022-11-21T09:59:06.452Z,99.90
2022-11-21T10:04:04.081Z,96.90
2022-11-21T10:06:39.233Z,94.60
2022-11-21T10:09:31.879Z,94.10
2022-11-21T10:12:37.897Z,98.10
2022-11-21T10:15:41.124Z,97.90
2022-11-21T10:18:32.226Z,99.90
2022-11-21T10:21:34.880Z,99.90
2022-11-21T10:24:24.234Z,99.90
2022-11-21T10:26:58.349Z,99.90
2022-11-21T10:29:35.269Z,99.20
2022-11-21T10:32:22.745Z,99.90
2022-11-21T10:34:53.645Z,99.70
2022-11-21T10:37:40.375Z,99.90
2022-11-21T10:40:19.280Z,99.90
2022-11-21T10:42:55.603Z,99.90
2022-11-21T10:47:55.378Z,97.40
2022-11-21T10:50:40.713Z,99.90
2022-11-21T10:53:33.488Z,99.40
2022-11-21T10:56:10.708Z,94.40
2022-11-21T10:58:45.223Z,99.90
2022-11-21T11:01:22.299Z,94.30
2022-11-21T11:04:43.954Z,93.10
2022-11-21T11:07:26.808Z,89.70
2022-11-21T11:10:16.283Z,85.90
2022-11-21T11:18:05.591Z,77.10
2022-11-21T11:20:40.999Z,77.80
2022-11-21T11:23:28.437Z,77.10
2022-11-21T11:25:58.724Z,66.50
2022-11-21T11:28:33.854Z,70.20
2022-11-21T11:33:50.886Z,74.50
2022-11-21T11:36:47.180Z,68.50
2022-11-21T11:39:28.772Z,57.00
2022-11-21T11:42:44.837Z,57.30
2022-11-21T11:45:42.325Z,82.00
2022-11-21T11:48:10.763Z,64.80
2022-11-21T11:50:58.007Z,67.00
2022-11-21T11:53:30.763Z,68.00
2022-11-21T11:56:08.544Z,69.60
2022-11-21T11:58:52.441Z,64.80
2022-11-21T12:01:30.599Z,73.70
2022-11-21T12:04:10.556Z,77.20
2022-11-21T12:10:01.669Z,79.00
2022-11-21T12:12:39.703Z,85.60
2022-11-21T12:15:48.294Z,84.50
2022-11-21T12:18:33.037Z,86.70
2022-11-21T12:21:18.872Z,90.80
2022-11-21T12:23:50.143Z,92.90
2022-11-21T12:26:54.611Z,92.70
2022-11-21T12:29:47.164Z,90.00
2022-11-21T12:32:40.425Z,92.40
2022-11-21T12:35:39.199Z,91.50
2022-11-21T12:38:41.925Z,91.90
2022-11-21T12:41:47.569Z,86.10
2022-11-21T12:44:50.203Z,99.90
2022-11-21T12:48:03.702Z,91.40
2022-11-21T12:50:56.440Z,99.90
2022-11-21T12:53:53.532Z,92.40
2022-11-21T12:56:36.832Z,93.10
2022-11-21T13:01:45.989Z,92.00
2022-11-21T13:04:21.734Z,93.90
2022-11-21T13:06:51.292Z,92.70
2022-11-21T13:09:23.851Z,94.90
2022-11-21T13:12:12.993Z,99.90
2022-11-21T13:15:00.238Z,97.00
2022-11-21T13:17:53.050Z,95.10
2022-11-21T13:20:41.046Z,94.10
2022-11-21T13:23:40.151Z,95.60
2022-11-21T13:26:49.055Z,96.60
2022-11-21T13:34:36.620Z,99.90
2022-11-21T13:37:05.612Z,98.80
2022-11-21T13:39:35.534Z,99.90
2022-11-21T13:42:22.078Z,99.90
2022-11-21T13:44:51.136Z,99.90
2022-11-21T13:47:51.213Z,99.90
2022-11-21T13:50:39.820Z,99.90
2022-11-21T13:53:35.459Z,99.90
2022-11-21T13:56:26.167Z,99.90
2022-11-21T13:59:10.757Z,99.90
2022-11-21T14:02:09.444Z,99.90
2022-11-21T14:05:02.950Z,99.90
2022-11-21T14:07:35.254Z,99.90
2022-11-21T14:10:21.544Z,99.90
2022-11-21T14:12:51.276Z,99.90
2022-11-21T14:15:44.423Z,99.90
2022-11-21T14:18:27.674Z,99.90
2022-11-21T14:21:01.157Z,99.90
2022-11-21T14:23:33.126Z,99.90
2022-11-21T14:26:12.439Z,99.90
2022-11-21T14:31:10.059Z,99.90
2022-11-21T14:33:40.111Z,99.90
2022-11-21T14:36:17.646Z,99.90
2022-11-21T14:39:34.576Z,99.90
2022-11-21T14:41:53.482Z,99.90
2022-11-21T14:44:23.252Z,99.90
2022-11-21T14:46:52.441Z,99.90
2022-11-21T14:49:23.374Z,99.90
2022-11-21T14:52:09.954Z,99.90
2022-11-21T14:55:27.973Z,99.90
2022-11-21T14:57:43.529Z,99.90
2022-11-21T15:06:00.843Z,99.90
2022-11-21T15:09:14.780Z,99.90
2022-11-21T15:11:17.695Z,99.90
2022-11-21T15:14:14.261Z,99.90
2022-11-21T15:16:38.642Z,99.90
2022-11-21T15:19:10.497Z,99.90
2022-11-21T15:21:46.486Z,99.90
2022-11-21T15:24:29.697Z,99.90
2022-11-21T15:32:15.805Z,99.90
2022-11-21T15:37:16.556Z,99.90
2022-11-21T15:39:48.374Z,99.90
2022-11-21T15:42:37.729Z,99.90
2022-11-21T15:45:27.484Z,99.90
2022-11-21T15:50:25.402Z,99.90
2022-11-21T15:52:53.408Z,99.90
2022-11-21T15:55:25.149Z,99.90
2022-11-21T16:15:22.167Z,99.90
2022-11-21T16:40:10.533Z,99.90
2022-11-21T16:47:37.875Z,99.90
2022-11-21T16:50:08.298Z,99.90
2022-11-21T17:02:33.116Z,99.90
2022-11-21T17:07:33.123Z,99.90
2022-11-21T17:12:39.196Z,99.90
2022-11-21T17:15:09.785Z,99.90
2022-11-21T17:17:37.867Z,99.90
2022-11-21T17:20:07.650Z,99.90
2022-11-21T17:32:36.578Z,99.90
2022-11-21T17:42:34.871Z,99.90
2022-11-21T17:47:34.361Z,99.90
2022-11-21T18:22:45.893Z,99.90
2022-11-21T18:35:07.704Z,99.90
2022-11-21T18:37:35.731Z,99.90
2022-11-21T18:42:34.717Z,99.90
2022-11-21T19:29:37.604Z,99.90
2022-11-21T19:32:05.405Z,99.90
2022-11-21T19:34:36.274Z,99.90
2022-11-21T19:37:04.958Z,99.90
2022-11-21T19:39:32.729Z,99.90
2022-11-21T19:42:00.359Z,99.90
2022-11-21T19:44:28.863Z,99.90
2022-11-21T19:47:00.135Z,99.90
2022-11-21T19:49:28.241Z,99.90
2022-11-21T19:51:56.147Z,99.90
2022-11-21T19:54:24.071Z,99.90
2022-11-21T19:56:51.726Z,99.90
2022-11-21T19:59:20.236Z,99.90
2022-11-21T20:01:52.430Z,99.90
2022-11-21T20:04:23.181Z,99.90
2022-11-21T20:06:50.949Z,99.90
2022-11-21T20:09:20.978Z,99.90
2022-11-21T20:11:51.087Z,99.90
2022-11-21T20:14:22.253Z,99.90
2022-11-21T20:16:53.112Z,99.90
2022-11-21T20:19:22.927Z,99.90
2022-11-21T20:21:50.885Z,99.90
2022-11-21T20:24:18.609Z,99.90
2022-11-21T20:26:46.723Z,99.90
2022-11-21T20:29:14.971Z,99.90
2022-11-21T20:34:13.284Z,99.90
2022-11-21T20:36:44.698Z,99.90
2022-11-21T20:39:15.376Z,99.90
2022-11-21T20:41:43.886Z,99.90
2022-11-21T20:47:06.453Z,99.90
2022-11-21T21:07:13.897Z,99.90
2022-11-21T21:09:41.975Z,99.90
2022-11-21T21:34:22.472Z,99.90
2022-11-21T21:36:51.407Z,99.90
2022-11-21T21:44:16.705Z,99.90
2022-11-21T21:54:20.331Z,99.90
2022-11-21T21:56:48.668Z,99.90
2022-11-21T22:11:39.169Z,99.90
2022-11-21T22:14:11.560Z,99.90
2022-11-21T22:21:36.931Z,99.90
2022-11-21T22:24:27.853Z,99.90
2022-11-21T22:34:20.113Z,99.90
2022-11-21T22:39:16.779Z,99.90
2022-11-21T23:03:58.802Z,99.90
2022-11-21T23:06:27.416Z,99.90
2022-11-21T23:08:56.382Z,99.90
2022-11-21T23:11:27.995Z,99.90
2022-11-21T23:13:56.502Z,99.90
2022-11-21T23:18:54.305Z,99.90
2022-11-21T23:23:50.445Z,99.90
2022-11-21T23:50:57.103Z,99.90
